createdAt,value
2022-10-16T00:00:23.818Z,100.00
2022-10-16T00:05:25.434Z,100.00
2022-10-16T00:10:27.002Z,100.00
2022-10-16T00:15:28.614Z,100.00
2022-10-16T00:20:32.216Z,100.00
2022-10-16T00:25:33.952Z,100.00
2022-10-16T00:30:39.685Z,100.00
2022-10-16T00:35:41.197Z,100.00
2022-10-16T00:40:43.159Z,100.00
2022-10-16T00:45:44.682Z,100.00
2022-10-16T00:50:46.384Z,100.00
2022-10-16T00:55:48.694Z,100.00
2022-10-16T01:00:50.234Z,100.00
2022-10-16T01:06:04.683Z,100.00
2022-10-16T01:11:26.752Z,100.00
2022-10-16T01:16:39.845Z,100.00
2022-10-16T01:21:45.838Z,100.00
2022-10-16T01:27:09.080Z,100.00
2022-10-16T01:32:37.321Z,100.00
2022-10-16T01:37:49.946Z,100.00
2022-10-16T01:42:56.529Z,100.00
2022-10-16T01:48:01.477Z,100.00
2022-10-16T01:53:05.908Z,100.00
2022-10-16T01:58:11.118Z,100.00
2022-10-16T02:03:15.912Z,100.00
2022-10-16T02:08:17.626Z,100.00
2022-10-16T02:13:27.293Z,100.00
2022-10-16T02:18:31.501Z,100.00
2022-10-16T02:23:55.419Z,100.00
2022-10-16T02:29:02.824Z,100.00
2022-10-16T02:34:06.796Z,100.00
2022-10-16T02:39:09.513Z,100.00
2022-10-16T02:44:11.013Z,100.00
2022-10-16T02:49:12.623Z,100.00
2022-10-16T02:54:14.283Z,100.00
2022-10-16T02:59:15.803Z,100.00
2022-10-16T03:04:17.346Z,100.00
2022-10-16T03:09:18.860Z,100.00
2022-10-16T03:14:20.448Z,100.00
2022-10-16T03:19:22.200Z,100.00
2022-10-16T03:24:23.764Z,100.00
2022-10-16T03:29:26.717Z,100.00
2022-10-16T03:34:28.915Z,100.00
2022-10-16T03:39:30.481Z,100.00
2022-10-16T03:44:32.000Z,100.00
2022-10-16T03:49:33.582Z,100.00
2022-10-16T03:54:35.209Z,100.00
2022-10-16T03:59:36.732Z,100.00
2022-10-16T04:04:38.272Z,100.00
2022-10-16T04:09:39.817Z,100.00
2022-10-16T04:14:41.383Z,100.00
2022-10-16T04:19:43.042Z,100.00
2022-10-16T04:24:44.538Z,100.00
2022-10-16T04:29:46.088Z,100.00
2022-10-16T04:34:47.626Z,100.00
2022-10-16T04:39:49.213Z,100.00
2022-10-16T04:44:50.749Z,100.00
2022-10-16T04:49:52.299Z,100.00
2022-10-16T04:54:54.964Z,100.00
2022-10-16T04:59:56.508Z,100.00
2022-10-16T05:04:58.038Z,100.00
2022-10-16T05:09:59.598Z,100.00
2022-10-16T05:15:01.186Z,100.00
2022-10-16T05:20:03.234Z,100.00
2022-10-16T05:25:05.324Z,100.00
2022-10-16T05:30:09.950Z,100.00
2022-10-16T05:35:13.898Z,100.00
2022-10-16T05:40:15.837Z,100.00
2022-10-16T05:45:17.473Z,100.00
2022-10-16T05:50:19.186Z,100.00
2022-10-16T05:55:20.720Z,100.00
2022-10-16T06:00:22.242Z,100.00
2022-10-16T06:05:23.806Z,100.00
2022-10-16T06:10:25.337Z,100.00
2022-10-16T06:15:26.916Z,100.00
2022-10-16T06:20:28.567Z,100.00
2022-10-16T06:25:30.189Z,100.00
2022-10-16T06:30:31.723Z,100.00
2022-10-16T06:35:33.339Z,100.00
2022-10-16T06:40:34.848Z,100.00
2022-10-16T06:45:36.500Z,100.00
2022-10-16T06:50:38.093Z,100.00
2022-10-16T06:55:40.026Z,100.00
2022-10-16T07:00:41.513Z,100.00
2022-10-16T07:05:43.603Z,100.00
2022-10-16T07:10:45.115Z,100.00
2022-10-16T07:15:46.658Z,100.00
2022-10-16T07:20:48.279Z,100.00
2022-10-16T07:25:55.479Z,100.00
2022-10-16T07:30:56.999Z,100.00
2022-10-16T07:35:58.823Z,100.00
2022-10-16T07:41:02.814Z,100.00
2022-10-16T07:46:06.508Z,100.00
2022-10-16T07:51:08.667Z,100.00
2022-10-16T07:56:10.912Z,100.00
2022-10-16T08:01:15.426Z,100.00
2022-10-16T08:06:20.727Z,100.00
2022-10-16T08:11:25.196Z,100.00
2022-10-16T08:16:26.810Z,100.00
2022-10-16T08:21:28.349Z,100.00
2022-10-16T08:26:29.927Z,100.00
2022-10-16T08:31:31.508Z,100.00
2022-10-16T08:36:33.463Z,100.00
2022-10-16T08:41:54.804Z,100.00
2022-10-16T08:47:12.684Z,100.00
2022-10-16T08:52:15.072Z,100.00
2022-10-16T08:57:24.309Z,100.00
2022-10-16T09:02:32.711Z,100.00
2022-10-16T09:13:18.081Z,100.00
2022-10-16T09:18:41.785Z,100.00
2022-10-16T09:23:44.491Z,100.00
2022-10-16T09:28:46.339Z,100.00
2022-10-16T09:33:58.846Z,100.00
2022-10-16T09:39:08.421Z,100.00
2022-10-16T09:44:29.955Z,100.00
2022-10-16T09:49:31.636Z,100.00
2022-10-16T09:54:37.691Z,100.00
2022-10-16T09:59:48.038Z,100.00
2022-10-16T10:04:55.002Z,100.00
2022-10-16T10:09:58.349Z,100.00
2022-10-16T10:15:06.802Z,100.00
2022-10-16T10:20:39.174Z,100.00
2022-10-16T10:25:50.652Z,98.63
2022-10-16T10:31:25.335Z,95.77
2022-10-16T10:36:30.050Z,95.35
2022-10-16T10:41:31.997Z,92.94
2022-10-16T10:46:45.542Z,94.82
2022-10-16T10:52:16.370Z,95.65
2022-10-16T10:57:30.687Z,94.60
2022-10-16T11:03:10.062Z,94.56
2022-10-16T11:08:22.872Z,92.05
2022-10-16T11:13:44.547Z,90.50
2022-10-16T11:18:55.656Z,93.28
2022-10-16T11:24:18.177Z,91.86
2022-10-16T11:29:29.974Z,90.41
2022-10-16T11:34:41.215Z,90.73
2022-10-16T11:39:45.007Z,89.39
2022-10-16T11:45:07.543Z,89.15
2022-10-16T11:50:39.806Z,89.01
2022-10-16T11:55:46.200Z,89.69
2022-10-16T12:01:05.753Z,88.52
2022-10-16T12:06:28.501Z,88.63
2022-10-16T12:11:30.008Z,89.05
2022-10-16T12:16:31.594Z,90.14
2022-10-16T12:21:33.256Z,89.07
2022-10-16T12:26:39.800Z,88.62
2022-10-16T12:31:57.488Z,87.75
2022-10-16T12:37:13.661Z,87.55
2022-10-16T12:42:27.484Z,87.21
2022-10-16T12:47:32.303Z,86.98
2022-10-16T12:52:40.748Z,85.93
2022-10-16T12:57:44.862Z,85.60
2022-10-16T13:02:55.653Z,86.09
2022-10-16T13:08:19.958Z,87.74
2022-10-16T13:13:47.213Z,87.83
2022-10-16T13:19:16.999Z,86.06
2022-10-16T13:24:46.091Z,85.37
2022-10-16T13:29:54.456Z,85.17
2022-10-16T13:34:56.693Z,85.07
2022-10-16T13:40:21.689Z,85.61
2022-10-16T13:45:26.485Z,84.86
2022-10-16T13:50:28.030Z,82.76
2022-10-16T13:55:29.769Z,82.57
2022-10-16T14:00:32.762Z,83.96
2022-10-16T14:05:35.375Z,84.38
2022-10-16T14:10:37.013Z,86.13
2022-10-16T14:15:39.094Z,85.81
2022-10-16T14:20:40.660Z,86.28
2022-10-16T14:25:42.204Z,87.18
2022-10-16T14:30:53.261Z,86.29
2022-10-16T14:36:05.967Z,86.61
2022-10-16T14:41:08.395Z,87.10
2022-10-16T14:46:15.795Z,87.48
2022-10-16T14:51:21.111Z,88.33
2022-10-16T14:56:25.552Z,87.86
2022-10-16T15:01:27.191Z,87.27
2022-10-16T15:06:28.845Z,86.81
2022-10-16T15:11:33.523Z,87.50
2022-10-16T15:16:35.119Z,87.61
2022-10-16T15:21:36.772Z,87.43
2022-10-16T15:26:38.321Z,87.62
2022-10-16T15:31:40.091Z,87.31
2022-10-16T15:36:41.706Z,88.14
2022-10-16T15:41:43.796Z,88.48
2022-10-16T15:46:45.401Z,88.88
2022-10-16T15:51:47.316Z,89.68
2022-10-16T15:56:48.827Z,90.28
2022-10-16T16:01:50.403Z,91.33
2022-10-16T16:06:52.000Z,92.27
2022-10-16T16:11:53.758Z,93.16
2022-10-16T16:16:56.383Z,94.52
2022-10-16T16:21:57.889Z,95.77
2022-10-16T16:26:59.471Z,97.18
2022-10-16T16:32:01.706Z,98.04
2022-10-16T16:37:03.615Z,100.00
2022-10-16T16:42:07.242Z,100.00
2022-10-16T16:47:08.824Z,100.00
2022-10-16T16:52:10.412Z,100.00
2022-10-16T16:57:11.948Z,100.00
2022-10-16T17:02:13.512Z,100.00
2022-10-16T17:07:15.053Z,100.00
2022-10-16T17:12:16.638Z,100.00
2022-10-16T17:17:18.202Z,100.00
2022-10-16T17:22:20.469Z,100.00
2022-10-16T17:27:22.816Z,100.00
2022-10-16T17:32:24.598Z,100.00
2022-10-16T17:37:26.459Z,100.00
2022-10-16T17:42:28.330Z,100.00
2022-10-16T17:47:30.184Z,100.00
2022-10-16T17:52:31.750Z,100.00
2022-10-16T17:57:33.295Z,100.00
2022-10-16T18:02:34.917Z,100.00
2022-10-16T18:07:36.888Z,100.00
2022-10-16T18:12:38.524Z,100.00
2022-10-16T18:17:40.140Z,100.00
2022-10-16T18:22:41.690Z,100.00
2022-10-16T18:27:43.256Z,100.00
2022-10-16T18:32:44.814Z,100.00
2022-10-16T18:37:46.395Z,100.00
2022-10-16T18:42:49.628Z,100.00
2022-10-16T18:47:51.226Z,100.00
2022-10-16T18:52:52.760Z,100.00
2022-10-16T18:57:55.284Z,100.00
2022-10-16T19:02:56.830Z,100.00
2022-10-16T19:07:58.640Z,100.00
2022-10-16T19:13:00.201Z,100.00
2022-10-16T19:18:01.737Z,100.00
2022-10-16T19:23:04.164Z,100.00
2022-10-16T19:28:08.719Z,100.00
2022-10-16T19:33:10.242Z,100.00
2022-10-16T19:38:11.824Z,100.00
2022-10-16T19:43:13.340Z,100.00
2022-10-16T19:48:15.206Z,100.00
2022-10-16T19:53:16.809Z,100.00
2022-10-16T19:58:18.411Z,100.00
2022-10-16T20:03:20.212Z,100.00
2022-10-16T20:08:22.772Z,100.00
2022-10-16T20:13:24.321Z,100.00
2022-10-16T20:18:25.899Z,100.00
2022-10-16T20:23:27.574Z,100.00
2022-10-16T20:28:29.202Z,100.00
2022-10-16T20:33:30.810Z,100.00
2022-10-16T20:38:32.418Z,100.00
2022-10-16T20:43:34.524Z,100.00
2022-10-16T20:48:37.259Z,100.00
2022-10-16T20:53:39.590Z,100.00
2022-10-16T20:58:42.099Z,100.00
2022-10-16T21:03:45.077Z,100.00
2022-10-16T21:08:46.695Z,100.00
2022-10-16T21:13:49.054Z,100.00
2022-10-16T21:18:50.997Z,100.00
2022-10-16T21:23:53.170Z,100.00
2022-10-16T21:29:06.889Z,100.00
2022-10-16T21:34:08.958Z,100.00
2022-10-16T21:39:16.668Z,100.00
2022-10-16T21:44:20.112Z,100.00
2022-10-16T21:49:21.652Z,100.00
2022-10-16T21:54:24.213Z,100.00
2022-10-16T21:59:25.773Z,100.00
2022-10-16T22:04:27.291Z,100.00
2022-10-16T22:09:28.901Z,100.00
2022-10-16T22:14:30.461Z,100.00
2022-10-16T22:19:32.032Z,100.00
2022-10-16T22:24:33.637Z,100.00
2022-10-16T22:29:35.214Z,100.00
2022-10-16T22:34:36.765Z,100.00
2022-10-16T22:39:38.311Z,100.00
2022-10-16T22:44:39.827Z,100.00
2022-10-16T22:49:41.401Z,100.00
2022-10-16T22:54:42.946Z,100.00
2022-10-16T22:59:44.483Z,100.00
2022-10-16T23:04:46.022Z,100.00
2022-10-16T23:09:47.545Z,100.00
2022-10-16T23:14:49.076Z,100.00
2022-10-16T23:19:50.607Z,100.00
2022-10-16T23:24:52.126Z,100.00
2022-10-16T23:29:53.711Z,100.00
2022-10-16T23:34:55.270Z,100.00
2022-10-16T23:39:56.778Z,100.00
2022-10-16T23:44:58.310Z,100.00
2022-10-16T23:49:59.871Z,100.00
2022-10-16T23:55:01.418Z,100.00
